KIFA

Iowa Falls Municipal Airport

Iowa Falls, Iowa, USA
METAR KIFA 201915Z AUTO 32020G29KT 10SM CLR 06/M08 A3027 RMK AO2 T00631083
Observed Flight Rules
Oct-20 @ 19:15 UTC (5 minutes ago) Visual Flight Rules
Wind Visibility Clouds
320° at 20 knots
 Gusting to 29 knots
10 miles
  • Clear skies
Temperatures Readings
Current 6°C / 43°F
Dewpoint -8°C / 18°F
Humidity 36%
Altimeter 30.27" Hg
Pressure 1025 hPa
Elevation 347
METAR KIFA 201915Z AUTO 32020G29KT 10SM CLR 06/M08 A3027 RMK AO2 T00631083
Observed Flight Rules
Oct-20 @ 19:15 UTC
(5 minutes ago)
VFR
Wind Visibility
320° at 20 knots
 Gusting to 29 knots
10 miles
Clouds
  • Clear skies
Temperature Dewpoint
6°C / 43°F -8°C / 18°F
Humidity Altimeter Pressure
36% 30.27" Hg 1025 hPa